Jefferson Valley, NY (10535)

5:47 AM EDT on May 06, 2015 (GMT -0400)
Jefferson Valley Route 6N | | Change Station
CLOSE
Current Station
Personal Weather Station
Location: Jefferson Valley-Yorktown, NY
Elevation: 564 ft
Nearby Weather Stations

Elev 564 ft 41.34 °N, 73.79 °W | Updated 5 seconds ago

Overcast
Overcast
61.5 °F
Feels Like 61.5 °F
N
0.0
Wind Variable Wind from NNE
Gusts 0.0 mph

Today
High -- | Low -- °F
--% Chance of Precip.
Yesterday
High -- | Low -- °F
Precip. -- in
5:46 AM 7:57 PM
Waning Gibbous, 95% visible
Pressure 30.23 in
Visibility 10.0 miles
Clouds Few 7000 ft
Few 9000 ft
Overcast 11000 ft
Dew Point 44 °F
Humidity 52%
Rainfall 0.00 in
Snow Depth Not available.
UV 0.0 out of 12
Pollen 9.00 out of 12
Air Quality Not available.
Flu Activity Widespread
METAR KDXR 060853Z AUTO 01005KT 10SM FEW070 FEW090 OVC110 18/03 A3024 RMK AO2 SLP236 T01780028 53006

More Conditions Fewer Conditions

Pressure 30.23 in
Visibility 10.0 miles
Clouds Few 7000 ft
Few 9000 ft
Overcast 11000 ft
Dew Point 44 °F
Humidity 52%
Rainfall 0.00 in
Snow Depth Not available.
UV 0.0 out of 12
Pollen 9.00 out of 12
Air Quality Not available.
Flu Activity Widespread
METAR KDXR 060853Z AUTO 01005KT 10SM FEW070 FEW090 OVC110 18/03 A3024 RMK AO2 SLP236 T01780028 53006

More Conditions Fewer Conditions

10-Day Weather Forecast

Almanac

Astronomy

May. 06, 2015 Rise Set
Actual Time
Civil Twilight
Nautical Twilight
Astronomical Twilight
Moon
Length of Visible Light
Length of Day
Tomorrow will be .
, % of the Moon is Illuminated

Today's Extremes

State Highs State Lows

Community

WunderPhotos

Upload Photos

1,818,859 photos uploaded!

WunderBlogs® & News

Nearby

Air Quality

  Air Quality AQ Index Pollutant
Not available.

Snow Depth

Station Depth Elevation

Earthquake Activity

City Distance Mag. Time & Date
Minimum magnitude displayed is 2.5.

Coastal Water Temperatures

Place Temperature

Stations

Nearby Weather Stations

Station Location Temp. Windchill Dew Point Humidity Wind Precip. Elev Updated Type